Time;durP1;ratioP1;P1;durP2;ratioP2;P2;SDS_P1;SDS_P2;PMS_P1;PMS_P2;Temp;Humidity;BMP_temperature;BMP_pressure;BME280_temperature;BME280_humidity;BME280_pressure;Samples;Min_cycle;Max_cycle;Signal;HPM_P1;HPM_P2
2020/12/14 00:13:02;;;;;;;1999.90;999.90;;;6.40;99.90;;;;;;3183920;26;20243;-82
2020/12/14 00:15:33;;;;;;;1999.90;999.90;;;6.30;99.90;;;;;;4942518;29;20180;-82
2020/12/14 00:17:59;;;;;;;1999.90;999.90;;;6.40;99.90;;;;;;4959069;29;20148;-82
2020/12/14 00:20:28;;;;;;;1999.90;999.90;;;6.40;99.90;;;;;;4960006;29;20164;-82
2020/12/14 00:23:11;;;;;;;1999.90;999.90;;;6.30;99.90;;;;;;4958303;29;20199;-83
2020/12/14 00:25:37;;;;;;;1999.90;999.90;;;6.30;99.90;;;;;;4958950;29;20156;-82
2020/12/14 00:28:03;;;;;;;1999.90;999.90;;;6.40;99.90;;;;;;4960471;28;20178;-82
2020/12/14 00:30:35;;;;;;;1999.90;999.90;;;6.30;99.90;;;;;;4962491;29;20410;-83
2020/12/14 00:33:24;;;;;;;1999.90;999.90;;;6.30;99.90;;;;;;4962760;29;20168;-83
2020/12/14 00:35:49;;;;;;;1999.90;999.90;;;6.30;99.90;;;;;;4963408;29;20156;-83
2020/12/14 00:38:18;;;;;;;1999.90;999.90;;;6.30;99.90;;;;;;4962750;29;20195;-82
2020/12/14 00:40:52;;;;;;;1999.90;999.90;;;6.30;99.90;;;;;;4962922;28;20178;-82
2020/12/14 00:43:18;;;;;;;1999.90;999.90;;;6.30;99.90;;;;;;4930650;29;20214;-83
2020/12/14 00:45:49;;;;;;;1999.90;999.90;;;6.30;99.90;;;;;;4962762;29;20164;-83
2020/12/14 00:48:15;;;;;;;1999.90;999.90;;;6.30;99.90;;;;;;4963092;29;20392;-83
2020/12/14 00:50:47;;;;;;;1999.90;999.90;;;6.20;99.90;;;;;;4963662;29;20167;-83
2020/12/14 00:53:13;;;;;;;1999.90;999.90;;;6.30;99.90;;;;;;4946060;29;20416;-83
2020/12/14 00:55:41;;;;;;;1999.90;999.90;;;6.40;99.90;;;;;;4961770;29;20168;-83
2020/12/14 00:58:07;;;;;;;1999.90;999.90;;;6.50;99.90;;;;;;4961152;29;20438;-83
2020/12/14 01:00:33;;;;;;;1999.90;999.90;;;6.40;99.90;;;;;;4962388;29;20168;-82
2020/12/14 01:03:02;;;;;;;1999.90;999.90;;;6.30;99.90;;;;;;4962428;29;20207;-82
2020/12/14 01:05:33;;;;;;;1999.90;999.90;;;6.30;99.90;;;;;;4944948;29;20208;-83
2020/12/14 01:08:05;;;;;;;1999.90;999.90;;;6.40;99.90;;;;;;4962724;29;20170;-83
2020/12/14 01:10:44;;;;;;;1999.90;999.90;;;6.40;99.90;;;;;;4961332;29;20642;-83
2020/12/14 01:13:10;;;;;;;1999.90;999.90;;;6.30;99.90;;;;;;4962151;29;20207;-83
2020/12/14 01:15:36;;;;;;;1999.90;999.90;;;6.40;99.90;;;;;;4961711;29;20167;-83
2020/12/14 01:18:02;;;;;;;1999.90;999.90;;;6.40;99.90;;;;;;4962037;29;20417;-82
2020/12/14 01:20:30;;;;;;;1999.90;999.90;;;6.40;99.90;;;;;;4945000;29;20218;-83
2020/12/14 01:22:56;;;;;;;1999.90;999.90;;;6.40;99.90;;;;;;4960232;29;20196;-83
2020/12/14 01:25:28;;;;;;;1999.90;999.90;;;6.40;99.90;;;;;;4961882;29;20168;-82
2020/12/14 01:28:06;;;;;;;1999.90;999.90;;;6.40;99.90;;;;;;4961376;29;20404;-83
2020/12/14 01:30:43;;;;;;;1999.90;999.90;;;6.40;99.90;;;;;;4960520;29;20171;-83
2020/12/14 01:33:12;;;;;;;1999.90;999.90;;;6.40;99.90;;;;;;4960587;28;20227;-82
2020/12/14 01:35:37;;;;;;;1999.90;999.90;;;6.40;99.90;;;;;;4960215;29;20223;-83
2020/12/14 01:38:06;;;;;;;1999.90;999.90;;;6.40;99.90;;;;;;4960578;28;20164;-82
2020/12/14 01:40:43;;;;;;;1999.90;999.90;;;6.40;99.90;;;;;;4959381;29;20172;-82
2020/12/14 01:43:12;;;;;;;1999.90;999.90;;;6.30;99.90;;;;;;4942780;29;20702;-82
2020/12/14 01:46:04;;;;;;;1999.90;999.90;;;6.40;99.90;;;;;;4959613;29;20207;-82
2020/12/14 01:48:35;;;;;;;1999.90;999.90;;;6.30;99.90;;;;;;4957737;29;20258;-82
2020/12/14 01:51:04;;;;;;;1999.90;999.90;;;6.40;99.90;;;;;;4961113;29;20152;-82
2020/12/14 01:53:33;;;;;;;1999.90;999.90;;;6.30;99.90;;;;;;4960898;29;20187;-83
2020/12/14 01:56:06;;;;;;;1999.90;999.90;;;6.30;99.90;;;;;;4961190;29;20166;-82
2020/12/14 01:58:38;;;;;;;1999.90;999.90;;;6.30;99.90;;;;;;4943754;29;20259;-82
2020/12/14 02:01:04;;;;;;;1999.90;999.90;;;6.30;99.90;;;;;;4960727;29;20226;-82
2020/12/14 02:03:37;;;;;;;1999.90;999.90;;;6.30;99.90;;;;;;4960537;29;20172;-82
2020/12/14 02:06:08;;;;;;;1999.90;999.90;;;6.40;99.90;;;;;;4959264;29;20168;-82
2020/12/14 02:08:37;;;;;;;1999.90;999.90;;;6.40;99.90;;;;;;4960147;29;20236;-82
2020/12/14 02:11:12;;;;;;;1999.90;999.90;;;6.40;99.90;;;;;;4959291;29;20168;-83
2020/12/14 02:13:40;;;;;;;1999.90;999.90;;;6.40;99.90;;;;;;4960706;29;20606;-83
2020/12/14 02:16:09;;;;;;;1999.90;999.90;;;6.40;99.90;;;;;;4958764;29;20168;-83
2020/12/14 02:18:37;;;;;;;1999.90;999.90;;;6.40;99.90;;;;;;4958918;29;20175;-82
2020/12/14 02:21:17;;;;;;;1999.90;999.90;;;6.40;99.90;;;;;;4959874;29;20206;-82
2020/12/14 02:23:46;;;;;;;1999.90;999.90;;;6.40;99.90;;;;;;4942959;29;20160;-82
2020/12/14 02:26:12;;;;;;;1999.90;999.90;;;6.40;99.90;;;;;;4960617;29;20156;-82
2020/12/14 02:28:40;;;;;;;1999.90;999.90;;;6.40;99.90;;;;;;4959922;29;20191;-82
2020/12/14 02:31:09;;;;;;;1999.90;999.90;;;6.40;99.90;;;;;;4958953;28;20639;-82
2020/12/14 02:33:40;;;;;;;1999.90;999.90;;;6.30;99.90;;;;;;4942223;29;20183;-82
2020/12/14 02:36:06;;;;;;;1999.90;999.90;;;6.30;99.90;;;;;;4960333;29;20572;-83
2020/12/14 02:38:32;;;;;;;1999.90;999.90;;;6.40;99.90;;;;;;4960130;29;20156;-83
2020/12/14 02:41:00;;;;;;;1999.90;999.90;;;6.30;99.90;;;;;;4959992;29;20396;-82
2020/12/14 02:43:25;;;;;;;1999.90;999.90;;;6.40;99.90;;;;;;4960074;29;20959;-82
2020/12/14 02:45:57;;;;;;;1999.90;999.90;;;6.40;99.90;;;;;;4959032;29;20172;-83
2020/12/14 02:48:23;;;;;;;1999.90;999.90;;;6.40;99.90;;;;;;4978247;23;20223;-85
2020/12/14 02:50:49;;;;;;;1999.90;999.90;;;6.40;99.90;;;;;;4976577;28;20660;-87
2020/12/14 02:53:14;;;;;;;1999.90;999.90;;;6.30;99.90;;;;;;4977029;28;20527;-87
2020/12/14 02:55:40;;;;;;;1999.90;999.90;;;6.30;99.90;;;;;;4977067;28;20163;-87
2020/12/14 02:58:06;;;;;;;1999.90;999.90;;;6.30;99.90;;;;;;4976978;28;20164;-87
2020/12/14 03:00:31;;;;;;;1999.90;999.90;;;6.30;99.90;;;;;;4977275;28;20167;-87
2020/12/14 03:02:57;;;;;;;1999.90;999.90;;;6.40;99.90;;;;;;4977566;28;20209;-87
2020/12/14 03:05:23;;;;;;;1999.90;999.90;;;6.40;99.90;;;;;;4976872;28;20187;-87
2020/12/14 03:07:48;;;;;;;1999.90;999.90;;;6.30;99.90;;;;;;4975840;28;20226;-87
2020/12/14 03:10:14;;;;;;;1999.90;999.90;;;6.30;99.90;;;;;;4976665;28;20167;-88
2020/12/14 03:12:39;;;;;;;1999.90;999.90;;;6.30;99.90;;;;;;4977168;28;20167;-87
2020/12/14 03:15:05;;;;;;;1999.90;999.90;;;6.30;99.90;;;;;;4977644;28;20171;-87
2020/12/14 03:17:31;;;;;;;1999.90;999.90;;;6.20;99.90;;;;;;4977000;28;20258;-87
2020/12/14 03:19:56;;;;;;;1999.90;999.90;;;6.20;99.90;;;;;;4976678;28;20167;-87
2020/12/14 03:22:22;;;;;;;1999.90;999.90;;;6.20;99.90;;;;;;4976269;28;20218;-87
2020/12/14 03:24:48;;;;;;;1999.90;999.90;;;6.20;99.90;;;;;;4976679;28;20170;-87
2020/12/14 03:27:13;;;;;;;1999.90;999.90;;;6.20;99.90;;;;;;4977070;28;20167;-87
2020/12/14 03:29:39;;;;;;;1999.90;999.90;;;6.20;99.90;;;;;;4959464;28;20297;-87
2020/12/14 03:32:05;;;;;;;1999.90;999.90;;;6.30;99.90;;;;;;4976589;28;20170;-87
2020/12/14 03:34:30;;;;;;;1999.90;999.90;;;6.20;99.90;;;;;;4976498;28;20167;-87
2020/12/14 03:36:59;;;;;;;1999.90;999.90;;;6.10;99.90;;;;;;4959069;28;20171;-87
2020/12/14 03:39:25;;;;;;;1999.90;999.90;;;6.10;99.90;;;;;;4976560;28;20171;-87
2020/12/14 03:41:51;;;;;;;1999.90;999.90;;;6.20;99.90;;;;;;4975983;28;20194;-87
2020/12/14 03:44:16;;;;;;;1999.90;999.90;;;6.20;99.90;;;;;;4976435;28;20198;-87
2020/12/14 03:46:42;;;;;;;1999.90;999.90;;;6.20;99.90;;;;;;4959548;28;20266;-87
2020/12/14 03:49:13;;;;;;;1999.90;999.90;;;6.20;99.90;;;;;;4976202;28;20206;-87
2020/12/14 03:51:39;;;;;;;1999.90;999.90;;;6.30;99.90;;;;;;4958881;28;20663;-87
2020/12/14 03:54:05;;;;;;;1999.90;999.90;;;6.30;99.90;;;;;;4976532;28;20179;-87
2020/12/14 03:56:33;;;;;;;1999.90;999.90;;;6.40;99.90;;;;;;4958860;28;20171;-87
2020/12/14 03:59:00;;;;;;;1999.90;999.90;;;6.40;99.90;;;;;;4959147;28;20539;-88
2020/12/14 04:01:26;;;;;;;1999.90;999.90;;;6.40;99.90;;;;;;4959279;28;20229;-87
2020/12/14 04:03:55;;;;;;;1999.90;999.90;;;6.50;99.90;;;;;;4979799;28;20168;-87
2020/12/14 04:06:23;;;;;;;1999.90;999.90;;;6.50;99.90;;;;;;4979544;28;20189;-87
2020/12/14 04:08:49;;;;;;;1999.90;999.90;;;6.50;99.90;;;;;;4962628;28;20163;-87
2020/12/14 04:11:16;;;;;;;1999.90;999.90;;;6.40;99.90;;;;;;4980410;28;20175;-87
2020/12/14 04:13:42;;;;;;;1999.90;999.90;;;6.40;99.90;;;;;;4962417;28;20171;-87
2020/12/14 04:16:09;;;;;;;1999.90;999.90;;;6.40;99.90;;;;;;4962345;28;20541;-87
2020/12/14 04:18:35;;;;;;;1999.90;999.90;;;6.40;99.90;;;;;;4979808;28;20249;-87
2020/12/14 04:21:01;;;;;;;1999.90;999.90;;;6.40;99.90;;;;;;4979752;28;20167;-87
2020/12/14 04:23:26;;;;;;;1999.90;999.90;;;6.30;99.90;;;;;;4962384;28;20174;-87
2020/12/14 04:25:52;;;;;;;1999.90;999.90;;;6.30;99.90;;;;;;4962500;28;20501;-87
2020/12/14 04:28:18;;;;;;;1999.90;999.90;;;6.40;99.90;;;;;;4962253;28;20174;-87
2020/12/14 04:30:43;;;;;;;1999.90;999.90;;;6.40;99.90;;;;;;4979613;28;20164;-87
2020/12/14 04:33:09;;;;;;;1999.90;999.90;;;6.30;99.90;;;;;;4979856;28;20186;-87
2020/12/14 04:35:34;;;;;;;1999.90;999.90;;;6.30;99.90;;;;;;4979480;28;20670;-87
2020/12/14 04:38:00;;;;;;;1999.90;999.90;;;6.30;99.90;;;;;;4962097;28;20172;-87
2020/12/14 04:40:29;;;;;;;1999.90;999.90;;;6.30;99.90;;;;;;4979430;28;20177;-87
2020/12/14 04:42:58;;;;;;;1999.90;999.90;;;6.30;99.90;;;;;;4978853;28;20194;-87
2020/12/14 04:45:28;;;;;;;1999.90;999.90;;;6.30;99.90;;;;;;4979695;28;20254;-87
2020/12/14 04:47:58;;;;;;;1999.90;999.90;;;6.30;99.90;;;;;;4979226;28;20575;-87
2020/12/14 04:50:25;;;;;;;1999.90;999.90;;;6.30;99.90;;;;;;4980020;28;20183;-87
2020/12/14 04:52:51;;;;;;;1999.90;999.90;;;6.40;99.90;;;;;;4978625;28;20182;-87
2020/12/14 04:55:24;;;;;;;1999.90;999.90;;;6.40;99.90;;;;;;4979787;28;20174;-87
2020/12/14 04:57:51;;;;;;;1999.90;999.90;;;6.40;99.90;;;;;;4979704;28;20152;-87
2020/12/14 05:00:18;;;;;;;1999.90;999.90;;;6.40;99.90;;;;;;4979239;28;20171;-87
2020/12/14 05:02:44;;;;;;;1999.90;999.90;;;6.40;99.90;;;;;;4979183;28;20194;-87
2020/12/14 05:05:11;;;;;;;1999.90;999.90;;;6.40;99.90;;;;;;4979604;28;20171;-87
2020/12/14 05:07:39;;;;;;;1999.90;999.90;;;6.40;99.90;;;;;;4961655;28;20638;-87
2020/12/14 05:10:05;;;;;;;1999.90;999.90;;;6.40;99.90;;;;;;4979621;28;20182;-87
2020/12/14 05:12:30;;;;;;;1999.90;999.90;;;6.40;99.90;;;;;;4961983;28;20172;-87
2020/12/14 05:14:59;;;;;;;1999.90;999.90;;;6.40;99.90;;;;;;4962804;28;20221;-87
2020/12/14 05:17:25;;;;;;;1999.90;999.90;;;6.40;99.90;;;;;;4962700;28;20199;-87
2020/12/14 05:19:54;;;;;;;1999.90;999.90;;;6.50;99.90;;;;;;4961964;28;20221;-87
2020/12/14 05:22:19;;;;;;;1999.90;999.90;;;6.50;99.90;;;;;;4961709;28;20202;-87
2020/12/14 05:24:54;;;;;;;1999.90;999.90;;;6.50;99.90;;;;;;4962163;28;20583;-87
2020/12/14 05:27:34;;;;;;;1999.90;999.90;;;6.60;99.90;;;;;;4962147;28;20578;-87
2020/12/14 05:30:00;;;;;;;1999.90;999.90;;;6.60;99.90;;;;;;4963083;28;20179;-87
2020/12/14 05:32:26;;;;;;;1999.90;999.90;;;6.60;99.90;;;;;;4962393;28;20655;-87
2020/12/14 05:34:52;;;;;;;1999.90;999.90;;;6.60;99.90;;;;;;4979126;28;20502;-88
2020/12/14 05:37:18;;;;;;;1999.90;999.90;;;6.60;99.90;;;;;;4961799;28;20602;-87
2020/12/14 05:39:45;;;;;;;1999.90;999.90;;;6.60;99.90;;;;;;4978270;28;20167;-87
2020/12/14 05:42:19;;;;;;;1999.90;999.90;;;6.60;99.90;;;;;;4978462;28;20199;-87
2020/12/14 05:44:46;;;;;;;1999.90;999.90;;;6.60;99.90;;;;;;4978689;28;20237;-87
2020/12/14 05:47:26;;;;;;;1999.90;999.90;;;6.60;99.90;;;;;;4978495;28;20195;-87
2020/12/14 05:49:51;;;;;;;1999.90;999.90;;;6.60;99.90;;;;;;4978679;28;20661;-87
2020/12/14 05:52:19;;;;;;;1999.90;999.90;;;6.60;99.90;;;;;;4961114;28;20179;-87
2020/12/14 05:54:53;;;;;;;1999.90;999.90;;;6.60;99.90;;;;;;4978169;28;20779;-87
2020/12/14 05:57:38;;;;;;;1999.90;999.90;;;6.60;99.90;;;;;;4978304;28;20171;-87
2020/12/14 06:00:09;;;;;;;1999.90;999.90;;;6.50;99.90;;;;;;4977965;28;20164;-87
2020/12/14 06:02:36;;;;;;;1999.90;999.90;;;6.50;99.90;;;;;;4978380;28;20187;-87
2020/12/14 06:05:04;;;;;;;1999.90;999.90;;;6.50;99.90;;;;;;4977930;28;20178;-87
2020/12/14 06:07:32;;;;;;;1999.90;999.90;;;6.50;99.90;;;;;;4961272;28;20175;-87
2020/12/14 06:10:10;;;;;;;1999.90;999.90;;;6.50;99.90;;;;;;4978307;28;20168;-87
2020/12/14 06:12:42;;;;;;;1999.90;999.90;;;6.50;99.90;;;;;;4960453;28;20163;-87
2020/12/14 06:15:17;;;;;;;1999.90;999.90;;;6.50;99.90;;;;;;4960923;28;20198;-87
2020/12/14 06:17:46;;;;;;;1999.90;999.90;;;6.50;99.90;;;;;;4961446;28;20166;-87
2020/12/14 06:20:18;;;;;;;1999.90;999.90;;;6.50;99.90;;;;;;4961142;28;20178;-87
2020/12/14 06:23:05;;;;;;;1999.90;999.90;;;6.50;99.90;;;;;;4960847;28;20187;-87
2020/12/14 06:25:31;;;;;;;1999.90;999.90;;;6.60;99.90;;;;;;4958828;28;20171;-88
2020/12/14 06:28:33;;;;;;;1999.90;999.90;;;6.60;99.90;;;;;;4960524;28;20287;-87
2020/12/14 06:30:59;;;;;;;1999.90;999.90;;;6.60;99.90;;;;;;4960765;28;20402;-87
2020/12/14 06:33:51;;;;;;;1999.90;999.90;;;6.60;99.90;;;;;;4969254;28;20246;-87
2020/12/14 06:36:23;;;;;;;1999.90;999.90;;;6.70;99.90;;;;;;4961053;28;20431;-87
2020/12/14 06:38:51;;;;;;;1999.90;999.90;;;6.60;99.90;;;;;;4960878;28;20178;-88
2020/12/14 06:41:24;;;;;;;1999.90;999.90;;;6.70;99.90;;;;;;4960386;28;20202;-87
2020/12/14 06:44:07;;;;;;;1999.90;999.90;;;6.70;99.90;;;;;;4960700;28;20163;-87
2020/12/14 06:46:35;;;;;;;1999.90;999.90;;;6.70;99.90;;;;;;4961051;28;20578;-87
2020/12/14 06:49:01;;;;;;;1999.90;999.90;;;6.70;99.90;;;;;;4977456;28;20171;-87
2020/12/14 06:51:51;;;;;;;1999.90;999.90;;;6.70;99.90;;;;;;4961962;28;20238;-87
2020/12/14 06:54:55;;;;;;;1999.90;999.90;;;6.70;99.90;;;;;;4978113;28;20155;-88
2020/12/14 06:57:38;;;;;;;1999.90;999.90;;;6.80;99.90;;;;;;4880992;29;20235;-87
2020/12/14 07:00:05;;;;;;;1999.90;999.90;;;6.80;99.90;;;;;;4879804;29;20159;-87
2020/12/14 07:02:39;;;;;;;1999.90;999.90;;;6.70;99.90;;;;;;4936252;28;20238;-88
2020/12/14 07:05:30;;;;;;;1999.90;999.90;;;6.70;99.90;;;;;;4958565;28;20650;-87
2020/12/14 07:07:58;;;;;;;1999.90;999.90;;;6.70;99.90;;;;;;4976053;28;20206;-87
2020/12/14 07:10:28;;;;;;;1999.90;999.90;;;6.70;99.90;;;;;;4976025;28;20178;-87
2020/12/14 07:12:54;;;;;;;1999.90;999.90;;;6.70;99.90;;;;;;4958980;28;20190;-88
2020/12/14 07:15:28;;;;;;;1999.90;999.90;;;6.80;99.90;;;;;;4976916;28;20242;-87
2020/12/14 07:18:08;;;;;;;1999.90;999.90;;;6.80;99.90;;;;;;4958510;28;20488;-88
2020/12/14 07:20:46;;;;;;;1999.90;999.90;;;6.90;99.90;;;;;;4957723;28;20255;-88
2020/12/14 07:23:15;;;;;;;1999.90;999.90;;;6.90;99.90;;;;;;4974373;28;20182;-88
2020/12/14 07:25:46;;;;;;;1999.90;999.90;;;6.90;99.90;;;;;;4974862;28;20671;-88
2020/12/14 07:28:12;;;;;;;1999.90;999.90;;;6.90;99.90;;;;;;4974585;28;20155;-88
2020/12/14 07:30:38;;;;;;;1999.90;999.90;;;6.90;99.90;;;;;;4974468;28;20168;-88
2020/12/14 07:33:06;;;;;;;1999.90;999.90;;;6.90;99.90;;;;;;4974472;28;20411;-88
2020/12/14 07:35:31;;;;;;;1999.90;999.90;;;7.00;99.90;;;;;;4956980;28;20171;-88
2020/12/14 07:37:57;;;;;;;1999.90;999.90;;;7.00;99.90;;;;;;4974210;28;20182;-88
2020/12/14 07:40:26;;;;;;;1999.90;999.90;;;7.00;99.90;;;;;;4958315;28;20614;-88
2020/12/14 07:42:52;;;;;;;1999.90;999.90;;;7.00;99.90;;;;;;4974661;28;20655;-87
2020/12/14 07:45:23;;;;;;;1999.90;999.90;;;7.00;99.90;;;;;;4975029;28;20183;-88
2020/12/14 07:48:00;;;;;;;1999.90;999.90;;;7.10;99.90;;;;;;4957230;28;20185;-88
2020/12/14 07:50:28;;;;;;;1999.90;999.90;;;7.10;99.90;;;;;;4974492;28;20155;-88
2020/12/14 07:52:55;;;;;;;1999.90;999.90;;;7.10;99.90;;;;;;4956694;28;20259;-88
2020/12/14 07:55:27;;;;;;;1999.90;999.90;;;7.10;99.90;;;;;;4974375;28;20163;-88
2020/12/14 07:57:57;;;;;;;1999.90;999.90;;;7.10;99.90;;;;;;4974404;28;20183;-88
2020/12/14 08:00:25;;;;;;;1999.90;999.90;;;7.20;99.90;;;;;;4974414;28;20646;-89
2020/12/14 08:03:02;;;;;;;1999.90;999.90;;;7.10;99.90;;;;;;4956937;28;20688;-88
2020/12/14 08:05:28;;;;;;;1999.90;999.90;;;7.20;99.90;;;;;;4974554;28;20239;-88
2020/12/14 08:08:00;;;;;;;1999.90;999.90;;;7.20;99.90;;;;;;4957753;28;20594;-88
2020/12/14 08:10:31;;;;;;;1999.90;999.90;;;7.20;99.90;;;;;;4957169;28;20520;-88
2020/12/14 08:13:03;;;;;;;1999.90;999.90;;;7.10;99.90;;;;;;4956731;28;20179;-88
2020/12/14 08:15:30;;;;;;;1999.90;999.90;;;7.20;99.90;;;;;;4974055;28;20159;-89
2020/12/14 08:17:59;;;;;;;1999.90;999.90;;;7.20;99.90;;;;;;4956933;28;20182;-89
2020/12/14 08:20:32;;;;;;;1999.90;999.90;;;7.20;99.90;;;;;;4974075;28;20167;-88
2020/12/14 08:23:00;;;;;;;1999.90;999.90;;;7.20;99.90;;;;;;4957666;28;20249;-89
2020/12/14 08:25:30;;;;;;;1999.90;999.90;;;7.20;99.90;;;;;;4974040;28;20250;-89
2020/12/14 08:28:03;;;;;;;1999.90;999.90;;;7.20;99.90;;;;;;4956813;28;20167;-89
2020/12/14 08:30:55;;;;;;;1999.90;999.90;;;7.10;99.90;;;;;;4973980;28;20166;-89
2020/12/14 08:33:20;;;;;;;1999.90;999.90;;;7.10;99.90;;;;;;4954917;28;20175;-89
2020/12/14 08:35:53;;;;;;;1999.90;999.90;;;7.20;99.90;;;;;;4974561;28;20163;-89
2020/12/14 08:38:29;;;;;;;1999.90;999.90;;;7.20;99.90;;;;;;4973876;28;20389;-89
2020/12/14 08:41:06;;;;;;;1999.90;999.90;;;7.20;99.90;;;;;;4956657;28;20586;-89
2020/12/14 08:43:34;;;;;;;1999.90;999.90;;;7.20;99.90;;;;;;4956798;28;20182;-89
2020/12/14 08:46:16;;;;;;;1999.90;999.90;;;7.20;99.90;;;;;;4974061;28;20214;-89
2020/12/14 08:48:46;;;;;;;1999.90;999.90;;;7.30;99.90;;;;;;4958467;28;20282;-89
2020/12/14 08:51:18;;;;;;;1999.90;999.90;;;7.30;99.90;;;;;;4960074;28;20249;-89
2020/12/14 08:53:52;;;;;;;1999.90;999.90;;;7.40;99.90;;;;;;4960119;28;20190;-89
2020/12/14 08:56:20;;;;;;;1999.90;999.90;;;7.40;99.90;;;;;;4978006;28;20144;-89
2020/12/14 08:58:59;;;;;;;1999.90;999.90;;;7.40;99.90;;;;;;4977121;28;20246;-89
2020/12/14 09:01:32;;;;;;;1999.90;999.90;;;7.40;99.90;;;;;;4959769;28;20198;-89
2020/12/14 09:04:10;;;;;;;1999.90;999.90;;;7.40;99.90;;;;;;4959967;28;20168;-89
2020/12/14 09:06:38;;;;;;;1999.90;999.90;;;7.50;99.90;;;;;;4977888;28;20149;-89
2020/12/14 09:12:22;;;;;;;1999.90;999.90;;;7.50;99.90;;;;;;4960943;29;20183;-81
2020/12/14 09:15:13;;;;;;;1999.90;999.90;;;7.50;99.90;;;;;;4945001;29;20163;-81
2020/12/14 09:18:02;;;;;;;1999.90;999.90;;;7.60;99.90;;;;;;4979964;28;20174;-82
2020/12/14 09:23:24;;;;;;;1999.90;999.90;;;7.60;99.90;;;;;;4921808;29;20243;-82
2020/12/14 09:26:24;;;;;;;1999.90;999.90;;;7.60;99.90;;;;;;4958136;28;20588;-82
2020/12/14 09:29:02;;;;;;;1999.90;999.90;;;7.60;99.90;;;;;;4981030;28;20168;-82
2020/12/14 09:32:13;;;;;;;1999.90;999.90;;;7.70;99.90;;;;;;4981244;28;20187;-82
2020/12/14 09:35:00;;;;;;;1999.90;999.90;;;7.80;99.90;;;;;;4981089;28;20172;-82
2020/12/14 09:37:36;;;;;;;1999.90;999.90;;;7.80;99.90;;;;;;4981278;28;20179;-82
2020/12/14 09:40:14;;;;;;;1999.90;999.90;;;7.90;99.90;;;;;;4963835;28;20512;-83
2020/12/14 09:43:02;;;;;;;1999.90;999.90;;;7.90;99.90;;;;;;4981523;28;20194;-82
2020/12/14 09:45:49;;;;;;;1999.90;999.90;;;7.80;99.90;;;;;;4981765;28;20195;-82
2020/12/14 09:48:40;;;;;;;1999.90;999.90;;;7.80;99.90;;;;;;4980309;28;20253;-82
2020/12/14 09:51:21;;;;;;;1999.90;999.90;;;7.80;99.90;;;;;;4980666;28;20179;-82
2020/12/14 09:54:23;;;;;;;1999.90;999.90;;;7.80;99.90;;;;;;4963434;28;20199;-82
2020/12/14 09:56:59;;;;;;;1999.90;999.90;;;7.80;99.90;;;;;;4972981;28;20182;-82
2020/12/14 10:00:10;;;;;;;1999.90;999.90;;;7.80;99.90;;;;;;4963137;28;20171;-83
2020/12/14 10:02:58;;;;;;;1999.90;999.90;;;7.90;99.90;;;;;;4976906;28;20203;-82
2020/12/14 10:10:01;;;;;;;1999.90;999.90;;;8.20;99.90;;;;;;4914134;29;20511;-82
2020/12/14 10:13:29;;;;;;;1999.90;999.90;;;8.30;99.90;;;;;;4919250;29;20181;-82
2020/12/14 10:16:35;;;;;;;1999.90;999.90;;;8.30;99.90;;;;;;4919205;29;20185;-83
2020/12/14 10:19:44;;;;;;;;;;;;;;;;;;;;;
2020/12/14 10:23:05;;;;;;;;;;;;;;;;;;;;;
2020/12/14 10:29:48;;;;;;;1999.90;999.90;;;8.50;99.90;;;;;;4883275;29;20182;-83
2020/12/14 10:32:39;;;;;;;1999.90;999.90;;;8.60;99.90;;;;;;4871308;29;20326;-83
2020/12/14 10:35:44;;;;;;;1999.90;999.90;;;8.60;99.90;;;;;;4915022;29;20187;-83
2020/12/14 10:38:39;;;;;;;1999.90;999.90;;;8.60;99.90;;;;;;4939741;29;20175;-83
2020/12/14 10:42:14;;;;;;;;;;;;;;;;;;;;;
2020/12/14 10:59:01;;;;;;;1999.90;999.90;;;8.70;99.90;;;;;;4978406;28;20206;-83
2020/12/14 11:01:57;;;;;;;1999.90;999.90;;;8.60;99.90;;;;;;4955950;28;20222;-81
2020/12/14 11:04:45;;;;;;;1999.90;999.90;;;8.80;99.90;;;;;;4978187;28;20199;-82
2020/12/14 11:08:26;;;;;;;;;;;;;;;;;;;;;
2020/12/14 11:11:04;;;;;;;1999.90;999.90;;;9.00;99.90;;;;;;4972372;28;20203;-81
2020/12/14 11:14:11;;;;;;;1999.90;999.90;;;9.10;99.90;;;;;;4978885;28;20151;-81
2020/12/14 11:16:42;;;;;;;1999.90;999.90;;;9.10;99.90;;;;;;4919249;29;20179;-83
2020/12/14 11:19:19;;;;;;;1999.90;999.90;;;9.10;99.90;;;;;;4904386;29;20180;-83
2020/12/14 11:22:14;;;;;;;1999.90;999.90;;;9.00;99.90;;;;;;4953947;28;20230;-82
2020/12/14 11:25:09;;;;;;;;;;;;;;;;;;;;;
2020/12/14 11:27:50;;;;;;;1999.90;999.90;;;9.10;99.90;;;;;;4976482;28;20174;-82
2020/12/14 11:30:42;;;;;;;1999.90;999.90;;;9.10;99.90;;;;;;4959455;28;20624;-82
2020/12/14 11:33:28;;;;;;;;;;;;;;;;;;;;;
2020/12/14 11:36:17;;;;;;;;;;;;;;;;;;;;;
2020/12/14 11:39:31;;;;;;;1999.90;999.90;;;9.20;99.90;;;;;;4980032;28;20603;-82
2020/12/14 11:41:59;;;;;;;1999.90;999.90;;;9.20;99.90;;;;;;4963035;28;20274;-83
2020/12/14 11:44:38;;;;;;;;;;;;;;;;;;;;;
2020/12/14 11:47:23;;;;;;;;;;;;;;;;;;;;;
2020/12/14 11:50:10;;;;;;;1999.90;999.90;;;9.20;99.90;;;;;;4977487;28;20238;-82
2020/12/14 11:52:53;;;;;;;1999.90;999.90;;;9.30;99.90;;;;;;4977198;28;20155;-82
2020/12/14 11:55:29;;;;;;;1999.90;999.90;;;9.30;99.90;;;;;;4959597;28;20171;-82
2020/12/14 11:58:00;;;;;;;1999.90;999.90;;;9.40;99.90;;;;;;4977871;28;20247;-82
2020/12/14 12:00:42;;;;;;;1999.90;999.90;;;9.40;99.90;;;;;;4960124;28;20262;-82
2020/12/14 12:05:56;;;;;;;1999.90;999.90;;;9.40;99.90;;;;;;4964903;28;20670;-82
2020/12/14 12:08:34;;;;;;;1999.90;999.90;;;9.50;99.90;;;;;;4978157;28;20164;-82
2020/12/14 12:11:12;;;;;;;1999.90;999.90;;;9.50;99.90;;;;;;4978446;28;20434;-82
2020/12/14 12:13:41;;;;;;;1999.90;999.90;;;9.50;99.90;;;;;;4978822;28;20144;-82
2020/12/14 12:16:28;;;;;;;1999.90;999.90;;;9.50;99.90;;;;;;4975876;28;20180;-82
2020/12/14 12:19:52;;;;;;;1999.90;999.90;;;9.50;99.90;;;;;;4977719;28;20176;-82
2020/12/14 12:22:35;;;;;;;1999.90;999.90;;;9.40;99.90;;;;;;4940219;28;20207;-83
2020/12/14 12:29:14;;;;;;;1999.90;999.90;;;9.40;99.90;;;;;;4981215;28;20184;-83
2020/12/14 12:32:04;;;;;;;1999.90;999.90;;;9.40;99.90;;;;;;4981636;28;20176;-82
2020/12/14 12:38:40;;;;;;;1999.90;999.90;;;9.50;99.90;;;;;;4958296;28;20176;-82
2020/12/14 12:46:17;;;;;;;;;;;;;;;;;;;;;
2020/12/14 12:48:24;;;;;;;1999.90;999.90;;;9.60;99.90;;;;;;4911940;28;20195;-82
2020/12/14 12:59:06;;;;;;;;;;;;;;;;;;;;;
2020/12/14 13:05:24;;;;;;;1999.90;999.90;;;9.70;99.90;;;;;;4932103;29;20220;-83
2020/12/14 13:07:59;;;;;;;1999.90;999.90;;;9.70;99.90;;;;;;4942360;29;20183;-82
2020/12/14 13:10:41;;;;;;;1999.90;999.90;;;9.80;99.90;;;;;;4966518;28;20226;-82
2020/12/14 13:13:31;;;;;;;1999.90;999.90;;;9.80;99.90;;;;;;4963602;28;20536;-82
2020/12/14 13:16:26;;;;;;;1999.90;999.90;;;9.80;99.90;;;;;;4962754;28;20171;-82
2020/12/14 13:19:56;;;;;;;1999.90;999.90;;;9.80;99.90;;;;;;4952021;28;20180;-82
2020/12/14 13:26:50;;;;;;;1999.90;999.90;;;9.80;99.90;;;;;;4901535;29;20177;-82
2020/12/14 13:29:19;;;;;;;1999.90;999.90;;;9.90;99.90;;;;;;4914328;28;20186;-82
2020/12/14 13:36:08;;;;;;;1999.90;999.90;;;9.90;99.90;;;;;;4915438;29;20542;-82
2020/12/14 13:38:46;;;;;;;1999.90;999.90;;;10.00;99.90;;;;;;4900644;29;20725;-82
2020/12/14 13:41:19;;;;;;;1999.90;999.90;;;10.00;99.90;;;;;;4972276;28;20251;-82
2020/12/14 13:44:03;;;;;;;1999.90;999.90;;;10.00;99.90;;;;;;4962206;28;20197;-82
2020/12/14 13:46:34;;;;;;;1999.90;999.90;;;10.00;99.90;;;;;;4960732;28;20175;-81
2020/12/14 13:52:07;;;;;;;1999.90;999.90;;;10.10;99.90;;;;;;4955376;28;20199;-80
2020/12/14 13:54:47;;;;;;;1999.90;999.90;;;10.10;99.90;;;;;;4976435;28;20164;-81
2020/12/14 13:57:27;;;;;;;1999.90;999.90;;;10.00;99.90;;;;;;4960078;28;20167;-81
2020/12/14 14:00:02;;;;;;;1999.90;999.90;;;10.00;99.90;;;;;;4949791;28;20175;-81
2020/12/14 14:03:00;;;;;;;1999.90;999.90;;;10.00;99.90;;;;;;4976883;28;20191;-80
2020/12/14 14:06:41;;;;;;;;;;;;;;;;;;;;;
2020/12/14 14:09:54;;;;;;;1999.90;999.90;;;9.90;99.90;;;;;;4968884;28;20186;-81
2020/12/14 14:13:18;;;;;;;;;;;;;;;;;;;;;
2020/12/14 14:16:04;;;;;;;1999.90;999.90;;;9.90;99.90;;;;;;4922073;28;20272;-81
2020/12/14 14:19:02;;;;;;;1999.90;999.90;;;9.80;99.90;;;;;;4976335;28;20166;-79
2020/12/14 14:22:02;;;;;;;1999.90;999.90;;;9.90;99.90;;;;;;4969645;28;20168;-80
2020/12/14 14:25:10;;;;;;;1999.90;999.90;;;9.90;99.90;;;;;;4977732;28;20171;-79